sensor_id;sensor_type;location;lat;lon;timestamp;temperature;humidity
13585;DHT22;6863;48.402;9.994;2022-11-15T00:01:51;7.60;99.90
13585;DHT22;6863;48.402;9.994;2022-11-15T00:04:16;7.60;99.90
13585;DHT22;6863;48.402;9.994;2022-11-15T00:06:42;7.50;99.90
13585;DHT22;6863;48.402;9.994;2022-11-15T00:09:08;7.50;99.90
13585;DHT22;6863;48.402;9.994;2022-11-15T00:11:33;7.50;99.90
13585;DHT22;6863;48.402;9.994;2022-11-15T00:13:59;7.40;99.90
13585;DHT22;6863;48.402;9.994;2022-11-15T00:16:27;7.40;99.90
13585;DHT22;6863;48.402;9.994;2022-11-15T00:18:53;7.40;99.90
13585;DHT22;6863;48.402;9.994;2022-11-15T00:21:18;7.30;99.90
13585;DHT22;6863;48.402;9.994;2022-11-15T00:23:44;7.30;99.90
13585;DHT22;6863;48.402;9.994;2022-11-15T00:26:12;7.20;99.90
13585;DHT22;6863;48.402;9.994;2022-11-15T00:28:38;7.20;99.90
13585;DHT22;6863;48.402;9.994;2022-11-15T00:31:06;7.10;99.90
13585;DHT22;6863;48.402;9.994;2022-11-15T00:33:33;7.10;99.90
13585;DHT22;6863;48.402;9.994;2022-11-15T00:36:07;7.10;99.90
13585;DHT22;6863;48.402;9.994;2022-11-15T00:38:35;7.00;99.90
13585;DHT22;6863;48.402;9.994;2022-11-15T00:41:02;7.00;99.90
13585;DHT22;6863;48.402;9.994;2022-11-15T00:43:29;6.90;99.90
13585;DHT22;6863;48.402;9.994;2022-11-15T00:45:54;6.80;99.90
13585;DHT22;6863;48.402;9.994;2022-11-15T00:48:20;6.80;99.90
13585;DHT22;6863;48.402;9.994;2022-11-15T00:50:46;6.70;99.90
13585;DHT22;6863;48.402;9.994;2022-11-15T00:53:11;6.70;99.90
13585;DHT22;6863;48.402;9.994;2022-11-15T00:55:37;6.60;99.90
13585;DHT22;6863;48.402;9.994;2022-11-15T00:58:02;6.60;99.90
13585;DHT22;6863;48.402;9.994;2022-11-15T01:00:28;6.60;99.90
13585;DHT22;6863;48.402;9.994;2022-11-15T01:02:53;6.60;99.90
13585;DHT22;6863;48.402;9.994;2022-11-15T01:05:19;6.60;99.90
13585;DHT22;6863;48.402;9.994;2022-11-15T01:07:45;6.60;99.90
13585;DHT22;6863;48.402;9.994;2022-11-15T01:10:10;6.60;99.90
13585;DHT22;6863;48.402;9.994;2022-11-15T01:12:36;6.70;99.90
13585;DHT22;6863;48.402;9.994;2022-11-15T01:15:02;6.70;99.90
13585;DHT22;6863;48.402;9.994;2022-11-15T01:17:28;6.70;99.90
13585;DHT22;6863;48.402;9.994;2022-11-15T01:19:55;6.80;99.90
13585;DHT22;6863;48.402;9.994;2022-11-15T01:22:20;6.90;99.90
13585;DHT22;6863;48.402;9.994;2022-11-15T01:24:46;6.80;99.90
13585;DHT22;6863;48.402;9.994;2022-11-15T01:27:12;6.90;99.90
13585;DHT22;6863;48.402;9.994;2022-11-15T01:29:37;6.90;99.90
13585;DHT22;6863;48.402;9.994;2022-11-15T01:32:03;6.80;99.90
13585;DHT22;6863;48.402;9.994;2022-11-15T01:34:29;6.70;99.90
13585;DHT22;6863;48.402;9.994;2022-11-15T01:36:54;6.70;99.90
13585;DHT22;6863;48.402;9.994;2022-11-15T01:39:20;6.60;99.90
13585;DHT22;6863;48.402;9.994;2022-11-15T01:41:45;6.60;99.90
13585;DHT22;6863;48.402;9.994;2022-11-15T01:44:41;6.60;99.90
13585;DHT22;6863;48.402;9.994;2022-11-15T01:47:29;6.50;99.90
13585;DHT22;6863;48.402;9.994;2022-11-15T01:50:02;6.50;99.90
13585;DHT22;6863;48.402;9.994;2022-11-15T01:52:31;6.50;99.90
13585;DHT22;6863;48.402;9.994;2022-11-15T01:57:35;6.30;99.90
13585;DHT22;6863;48.402;9.994;2022-11-15T02:00:03;6.20;99.90
13585;DHT22;6863;48.402;9.994;2022-11-15T02:02:29;6.20;99.90
13585;DHT22;6863;48.402;9.994;2022-11-15T02:04:54;6.20;99.90
13585;DHT22;6863;48.402;9.994;2022-11-15T02:07:21;6.10;99.90
13585;DHT22;6863;48.402;9.994;2022-11-15T02:09:47;6.00;99.90
13585;DHT22;6863;48.402;9.994;2022-11-15T02:12:16;6.00;99.90
13585;DHT22;6863;48.402;9.994;2022-11-15T02:14:51;6.00;99.90
13585;DHT22;6863;48.402;9.994;2022-11-15T02:20:05;5.80;99.90
13585;DHT22;6863;48.402;9.994;2022-11-15T02:31:11;5.60;99.90
13585;DHT22;6863;48.402;9.994;2022-11-15T02:36:14;5.60;99.90
13585;DHT22;6863;48.402;9.994;2022-11-15T02:38:50;5.60;99.90
13585;DHT22;6863;48.402;9.994;2022-11-15T02:41:21;5.70;99.90
13585;DHT22;6863;48.402;9.994;2022-11-15T02:43:56;5.70;99.90
13585;DHT22;6863;48.402;9.994;2022-11-15T02:49:52;5.60;99.90
13585;DHT22;6863;48.402;9.994;2022-11-15T02:52:24;5.50;99.90
13585;DHT22;6863;48.402;9.994;2022-11-15T02:54:58;5.50;99.90
13585;DHT22;6863;48.402;9.994;2022-11-15T02:57:35;5.40;99.90
13585;DHT22;6863;48.402;9.994;2022-11-15T03:05:19;5.30;99.90
13585;DHT22;6863;48.402;9.994;2022-11-15T03:08:09;5.30;99.90
13585;DHT22;6863;48.402;9.994;2022-11-15T03:18:40;5.00;99.90
13585;DHT22;6863;48.402;9.994;2022-11-15T03:21:09;4.90;99.90
13585;DHT22;6863;48.402;9.994;2022-11-15T03:23:37;4.90;99.90
13585;DHT22;6863;48.402;9.994;2022-11-15T03:26:06;4.90;99.90
13585;DHT22;6863;48.402;9.994;2022-11-15T03:28:51;4.90;99.90
13585;DHT22;6863;48.402;9.994;2022-11-15T03:31:18;4.90;99.90
13585;DHT22;6863;48.402;9.994;2022-11-15T03:34:06;4.90;99.90
13585;DHT22;6863;48.402;9.994;2022-11-15T03:36:33;4.90;99.90
13585;DHT22;6863;48.402;9.994;2022-11-15T03:39:02;4.90;99.90
13585;DHT22;6863;48.402;9.994;2022-11-15T03:41:47;4.90;99.90
13585;DHT22;6863;48.402;9.994;2022-11-15T03:44:30;4.80;99.90
13585;DHT22;6863;48.402;9.994;2022-11-15T03:47:03;4.80;99.90
13585;DHT22;6863;48.402;9.994;2022-11-15T03:49:37;4.80;99.90
13585;DHT22;6863;48.402;9.994;2022-11-15T03:52:04;4.80;99.90
13585;DHT22;6863;48.402;9.994;2022-11-15T03:54:30;4.80;99.90
13585;DHT22;6863;48.402;9.994;2022-11-15T03:56:56;4.90;99.90
13585;DHT22;6863;48.402;9.994;2022-11-15T03:59:22;4.80;99.90
13585;DHT22;6863;48.402;9.994;2022-11-15T04:01:47;4.80;99.90
13585;DHT22;6863;48.402;9.994;2022-11-15T04:04:13;4.80;99.90
13585;DHT22;6863;48.402;9.994;2022-11-15T04:06:39;4.90;99.90
13585;DHT22;6863;48.402;9.994;2022-11-15T04:09:04;4.90;99.90
13585;DHT22;6863;48.402;9.994;2022-11-15T04:11:30;4.90;99.90
13585;DHT22;6863;48.402;9.994;2022-11-15T04:13:55;4.90;99.90
13585;DHT22;6863;48.402;9.994;2022-11-15T04:16:21;4.90;99.90
13585;DHT22;6863;48.402;9.994;2022-11-15T04:18:46;4.90;99.90
13585;DHT22;6863;48.402;9.994;2022-11-15T04:21:32;5.00;99.90
13585;DHT22;6863;48.402;9.994;2022-11-15T04:24:16;5.00;99.90
13585;DHT22;6863;48.402;9.994;2022-11-15T04:26:42;5.10;99.90
13585;DHT22;6863;48.402;9.994;2022-11-15T04:29:07;5.20;99.90
13585;DHT22;6863;48.402;9.994;2022-11-15T04:31:51;5.30;99.90
13585;DHT22;6863;48.402;9.994;2022-11-15T04:34:17;5.30;99.90
13585;DHT22;6863;48.402;9.994;2022-11-15T04:36:43;5.40;99.90
13585;DHT22;6863;48.402;9.994;2022-11-15T04:39:26;5.40;99.90
13585;DHT22;6863;48.402;9.994;2022-11-15T04:41:52;5.40;99.90
13585;DHT22;6863;48.402;9.994;2022-11-15T04:44:17;5.40;99.90
13585;DHT22;6863;48.402;9.994;2022-11-15T04:46:43;5.40;99.90
13585;DHT22;6863;48.402;9.994;2022-11-15T04:49:09;5.40;99.90
13585;DHT22;6863;48.402;9.994;2022-11-15T04:51:34;5.40;99.90
13585;DHT22;6863;48.402;9.994;2022-11-15T04:54:00;5.40;99.90
13585;DHT22;6863;48.402;9.994;2022-11-15T04:56:25;5.40;99.90
13585;DHT22;6863;48.402;9.994;2022-11-15T04:58:51;5.40;99.90
13585;DHT22;6863;48.402;9.994;2022-11-15T05:01:16;5.40;99.90
13585;DHT22;6863;48.402;9.994;2022-11-15T05:03:43;5.30;99.90
13585;DHT22;6863;48.402;9.994;2022-11-15T05:06:27;5.30;99.90
13585;DHT22;6863;48.402;9.994;2022-11-15T05:08:53;5.30;99.90
13585;DHT22;6863;48.402;9.994;2022-11-15T05:11:19;5.20;99.90
13585;DHT22;6863;48.402;9.994;2022-11-15T05:13:45;5.10;99.90
13585;DHT22;6863;48.402;9.994;2022-11-15T05:16:11;5.10;99.90
13585;DHT22;6863;48.402;9.994;2022-11-15T05:18:36;5.10;99.90
13585;DHT22;6863;48.402;9.994;2022-11-15T05:21:07;5.00;99.90
13585;DHT22;6863;48.402;9.994;2022-11-15T05:23:33;5.00;99.90
13585;DHT22;6863;48.402;9.994;2022-11-15T05:26:00;5.00;99.90
13585;DHT22;6863;48.402;9.994;2022-11-15T05:28:26;5.00;99.90
13585;DHT22;6863;48.402;9.994;2022-11-15T05:30:51;5.00;99.90
13585;DHT22;6863;48.402;9.994;2022-11-15T05:33:17;4.90;99.90
13585;DHT22;6863;48.402;9.994;2022-11-15T05:35:48;4.90;99.90
13585;DHT22;6863;48.402;9.994;2022-11-15T05:38:16;4.90;99.90
13585;DHT22;6863;48.402;9.994;2022-11-15T05:40:42;4.80;99.90
13585;DHT22;6863;48.402;9.994;2022-11-15T05:43:07;4.80;99.90
13585;DHT22;6863;48.402;9.994;2022-11-15T05:45:35;4.80;99.90
13585;DHT22;6863;48.402;9.994;2022-11-15T05:48:05;4.90;99.90
13585;DHT22;6863;48.402;9.994;2022-11-15T05:50:32;4.90;99.90
13585;DHT22;6863;48.402;9.994;2022-11-15T05:52:57;4.90;99.90
13585;DHT22;6863;48.402;9.994;2022-11-15T05:55:23;4.90;99.90
13585;DHT22;6863;48.402;9.994;2022-11-15T05:57:49;4.90;99.90
13585;DHT22;6863;48.402;9.994;2022-11-15T06:00:15;4.90;99.90
13585;DHT22;6863;48.402;9.994;2022-11-15T06:02:40;4.90;99.90
13585;DHT22;6863;48.402;9.994;2022-11-15T06:05:06;4.80;99.90
13585;DHT22;6863;48.402;9.994;2022-11-15T06:07:31;4.90;99.90
13585;DHT22;6863;48.402;9.994;2022-11-15T06:09:57;4.90;99.90
13585;DHT22;6863;48.402;9.994;2022-11-15T06:12:22;4.90;99.90
13585;DHT22;6863;48.402;9.994;2022-11-15T06:14:48;4.90;99.90
13585;DHT22;6863;48.402;9.994;2022-11-15T06:17:14;4.90;99.90
13585;DHT22;6863;48.402;9.994;2022-11-15T06:19:39;4.90;99.90
13585;DHT22;6863;48.402;9.994;2022-11-15T06:22:05;4.80;99.90
13585;DHT22;6863;48.402;9.994;2022-11-15T06:24:30;4.90;99.90
13585;DHT22;6863;48.402;9.994;2022-11-15T06:26:56;4.90;99.90
13585;DHT22;6863;48.402;9.994;2022-11-15T06:29:22;4.90;99.90
13585;DHT22;6863;48.402;9.994;2022-11-15T06:31:48;4.90;99.90
13585;DHT22;6863;48.402;9.994;2022-11-15T06:34:14;5.00;99.90
13585;DHT22;6863;48.402;9.994;2022-11-15T06:36:39;5.00;99.90
13585;DHT22;6863;48.402;9.994;2022-11-15T06:39:05;5.00;99.90
13585;DHT22;6863;48.402;9.994;2022-11-15T06:41:34;5.00;99.90
13585;DHT22;6863;48.402;9.994;2022-11-15T06:43:59;5.00;99.90
13585;DHT22;6863;48.402;9.994;2022-11-15T06:46:25;5.00;99.90
13585;DHT22;6863;48.402;9.994;2022-11-15T06:48:52;5.00;99.90
13585;DHT22;6863;48.402;9.994;2022-11-15T06:51:17;5.00;99.90
13585;DHT22;6863;48.402;9.994;2022-11-15T06:53:43;5.00;99.90
13585;DHT22;6863;48.402;9.994;2022-11-15T06:56:08;5.10;99.90
13585;DHT22;6863;48.402;9.994;2022-11-15T06:58:34;5.20;99.90
13585;DHT22;6863;48.402;9.994;2022-11-15T07:01:06;5.40;99.90
13585;DHT22;6863;48.402;9.994;2022-11-15T07:03:35;5.70;99.90
13585;DHT22;6863;48.402;9.994;2022-11-15T07:06:01;6.00;99.90
13585;DHT22;6863;48.402;9.994;2022-11-15T07:08:28;6.40;99.90
13585;DHT22;6863;48.402;9.994;2022-11-15T07:10:54;6.70;99.90
13585;DHT22;6863;48.402;9.994;2022-11-15T07:16:03;7.40;99.90
13585;DHT22;6863;48.402;9.994;2022-11-15T07:18:29;7.80;99.90
13585;DHT22;6863;48.402;9.994;2022-11-15T07:20:55;8.20;99.90
13585;DHT22;6863;48.402;9.994;2022-11-15T07:23:20;9.00;99.90
13585;DHT22;6863;48.402;9.994;2022-11-15T07:25:46;9.90;99.90
13585;DHT22;6863;48.402;9.994;2022-11-15T07:28:12;10.50;99.90
13585;DHT22;6863;48.402;9.994;2022-11-15T07:30:37;11.20;99.90
13585;DHT22;6863;48.402;9.994;2022-11-15T07:33:03;11.40;99.90
13585;DHT22;6863;48.402;9.994;2022-11-15T07:35:29;11.40;99.90
13585;DHT22;6863;48.402;9.994;2022-11-15T07:38:00;11.30;99.90
13585;DHT22;6863;48.402;9.994;2022-11-15T07:40:28;11.00;99.90
13585;DHT22;6863;48.402;9.994;2022-11-15T07:43:05;11.30;99.90
13585;DHT22;6863;48.402;9.994;2022-11-15T07:45:31;11.60;99.90
13585;DHT22;6863;48.402;9.994;2022-11-15T07:47:59;12.40;99.60
13585;DHT22;6863;48.402;9.994;2022-11-15T07:50:25;13.10;98.10
13585;DHT22;6863;48.402;9.994;2022-11-15T07:52:58;14.00;96.20
13585;DHT22;6863;48.402;9.994;2022-11-15T07:55:25;14.80;94.40
13585;DHT22;6863;48.402;9.994;2022-11-15T07:57:52;15.10;93.00
13585;DHT22;6863;48.402;9.994;2022-11-15T08:00:19;15.50;92.10
13585;DHT22;6863;48.402;9.994;2022-11-15T08:02:45;15.90;90.90
13585;DHT22;6863;48.402;9.994;2022-11-15T08:05:11;15.80;90.30
13585;DHT22;6863;48.402;9.994;2022-11-15T08:07:36;16.10;89.00
13585;DHT22;6863;48.402;9.994;2022-11-15T08:10:03;16.50;87.60
13585;DHT22;6863;48.402;9.994;2022-11-15T08:12:31;17.10;84.80
13585;DHT22;6863;48.402;9.994;2022-11-15T08:14:57;17.30;82.30
13585;DHT22;6863;48.402;9.994;2022-11-15T08:17:23;17.50;81.70
13585;DHT22;6863;48.402;9.994;2022-11-15T08:19:49;18.00;79.60
13585;DHT22;6863;48.402;9.994;2022-11-15T08:22:15;18.30;76.80
13585;DHT22;6863;48.402;9.994;2022-11-15T08:24:41;18.50;75.50
13585;DHT22;6863;48.402;9.994;2022-11-15T08:27:07;18.20;74.90
13585;DHT22;6863;48.402;9.994;2022-11-15T08:29:43;18.20;75.20
13585;DHT22;6863;48.402;9.994;2022-11-15T08:32:10;18.40;74.20
13585;DHT22;6863;48.402;9.994;2022-11-15T08:34:37;19.00;71.90
13585;DHT22;6863;48.402;9.994;2022-11-15T08:37:02;19.80;69.20
13585;DHT22;6863;48.402;9.994;2022-11-15T08:39:28;20.20;66.90
13585;DHT22;6863;48.402;9.994;2022-11-15T08:41:53;20.40;64.50
13585;DHT22;6863;48.402;9.994;2022-11-15T08:44:19;21.40;62.00
13585;DHT22;6863;48.402;9.994;2022-11-15T08:46:47;21.50;60.40
13585;DHT22;6863;48.402;9.994;2022-11-15T08:49:13;21.70;58.40
13585;DHT22;6863;48.402;9.994;2022-11-15T08:51:39;20.90;57.90
13585;DHT22;6863;48.402;9.994;2022-11-15T08:54:04;20.80;59.70
13585;DHT22;6863;48.402;9.994;2022-11-15T08:56:30;20.10;60.60
13585;DHT22;6863;48.402;9.994;2022-11-15T08:58:55;19.60;60.70
13585;DHT22;6863;48.402;9.994;2022-11-15T09:01:21;19.50;61.40
13585;DHT22;6863;48.402;9.994;2022-11-15T09:03:47;18.30;63.40
13585;DHT22;6863;48.402;9.994;2022-11-15T09:06:13;17.70;65.80
13585;DHT22;6863;48.402;9.994;2022-11-15T09:08:39;16.80;68.50
13585;DHT22;6863;48.402;9.994;2022-11-15T09:11:06;16.90;71.00
13585;DHT22;6863;48.402;9.994;2022-11-15T09:13:32;16.90;71.10
13585;DHT22;6863;48.402;9.994;2022-11-15T09:15:58;19.10;66.90
13585;DHT22;6863;48.402;9.994;2022-11-15T09:18:24;20.60;61.90
13585;DHT22;6863;48.402;9.994;2022-11-15T09:20:50;22.40;57.00
13585;DHT22;6863;48.402;9.994;2022-11-15T09:23:16;23.00;54.40
13585;DHT22;6863;48.402;9.994;2022-11-15T09:25:41;24.20;52.60
13585;DHT22;6863;48.402;9.994;2022-11-15T09:28:08;24.80;49.70
13585;DHT22;6863;48.402;9.994;2022-11-15T09:30:33;25.40;48.40
13585;DHT22;6863;48.402;9.994;2022-11-15T09:33:06;24.70;48.80
13585;DHT22;6863;48.402;9.994;2022-11-15T09:35:32;25.30;47.80
13585;DHT22;6863;48.402;9.994;2022-11-15T09:37:57;25.90;46.60
13585;DHT22;6863;48.402;9.994;2022-11-15T09:40:24;25.00;46.40
13585;DHT22;6863;48.402;9.994;2022-11-15T09:45:33;21.50;52.10
13585;DHT22;6863;48.402;9.994;2022-11-15T09:50:50;21.90;53.30
13585;DHT22;6863;48.402;9.994;2022-11-15T09:53:38;22.50;52.80
13585;DHT22;6863;48.402;9.994;2022-11-15T09:56:32;22.60;51.50
13585;DHT22;6863;48.402;9.994;2022-11-15T09:59:20;23.10;51.20
13585;DHT22;6863;48.402;9.994;2022-11-15T10:04:23;24.80;48.10
13585;DHT22;6863;48.402;9.994;2022-11-15T10:06:57;25.90;46.30
13585;DHT22;6863;48.402;9.994;2022-11-15T10:12:18;26.60;43.40
13585;DHT22;6863;48.402;9.994;2022-11-15T10:14:45;26.90;43.20
13585;DHT22;6863;48.402;9.994;2022-11-15T10:20:23;26.70;43.20
13585;DHT22;6863;48.402;9.994;2022-11-15T10:22:52;27.10;42.50
13585;DHT22;6863;48.402;9.994;2022-11-15T10:25:22;27.80;41.00
13585;DHT22;6863;48.402;9.994;2022-11-15T10:27:59;27.50;40.60
13585;DHT22;6863;48.402;9.994;2022-11-15T10:30:50;27.60;41.20
13585;DHT22;6863;48.402;9.994;2022-11-15T10:36:19;27.00;42.60
13585;DHT22;6863;48.402;9.994;2022-11-15T10:41:19;29.10;38.90
13585;DHT22;6863;48.402;9.994;2022-11-15T10:44:01;29.20;38.50
13585;DHT22;6863;48.402;9.994;2022-11-15T10:46:27;30.00;36.80
13585;DHT22;6863;48.402;9.994;2022-11-15T10:48:52;28.90;37.20
13585;DHT22;6863;48.402;9.994;2022-11-15T10:51:27;29.00;37.80
13585;DHT22;6863;48.402;9.994;2022-11-15T10:53:58;28.60;38.60
13585;DHT22;6863;48.402;9.994;2022-11-15T10:56:26;28.10;38.40
13585;DHT22;6863;48.402;9.994;2022-11-15T10:58:58;27.90;39.50
13585;DHT22;6863;48.402;9.994;2022-11-15T11:01:28;27.80;39.00
13585;DHT22;6863;48.402;9.994;2022-11-15T11:04:02;27.70;38.50
13585;DHT22;6863;48.402;9.994;2022-11-15T11:06:28;27.80;39.00
13585;DHT22;6863;48.402;9.994;2022-11-15T11:09:05;27.90;39.10
13585;DHT22;6863;48.402;9.994;2022-11-15T11:11:49;28.50;36.70
13585;DHT22;6863;48.402;9.994;2022-11-15T11:14:21;28.70;36.20
13585;DHT22;6863;48.402;9.994;2022-11-15T11:17:21;29.20;36.10
13585;DHT22;6863;48.402;9.994;2022-11-15T11:20:14;29.50;34.50
13585;DHT22;6863;48.402;9.994;2022-11-15T11:25:35;27.90;36.40
13585;DHT22;6863;48.402;9.994;2022-11-15T11:42:39;28.00;34.70
13585;DHT22;6863;48.402;9.994;2022-11-15T11:47:40;27.80;36.20
13585;DHT22;6863;48.402;9.994;2022-11-15T11:53:05;29.60;33.90
13585;DHT22;6863;48.402;9.994;2022-11-15T11:55:44;30.70;32.50
13585;DHT22;6863;48.402;9.994;2022-11-15T11:58:26;30.40;32.60
13585;DHT22;6863;48.402;9.994;2022-11-15T12:00:57;30.00;32.40
13585;DHT22;6863;48.402;9.994;2022-11-15T12:03:48;30.50;32.30
13585;DHT22;6863;48.402;9.994;2022-11-15T12:06:33;31.70;30.80
13585;DHT22;6863;48.402;9.994;2022-11-15T12:09:39;32.30;29.60
13585;DHT22;6863;48.402;9.994;2022-11-15T12:12:27;31.80;29.70
13585;DHT22;6863;48.402;9.994;2022-11-15T12:15:00;31.30;30.00
13585;DHT22;6863;48.402;9.994;2022-11-15T12:17:29;30.10;31.50
13585;DHT22;6863;48.402;9.994;2022-11-15T12:20:04;28.90;32.20
13585;DHT22;6863;48.402;9.994;2022-11-15T12:22:43;28.60;33.70
13585;DHT22;6863;48.402;9.994;2022-11-15T12:27:41;28.10;34.00
13585;DHT22;6863;48.402;9.994;2022-11-15T12:30:50;28.00;34.50
13585;DHT22;6863;48.402;9.994;2022-11-15T12:33:37;28.20;33.80
13585;DHT22;6863;48.402;9.994;2022-11-15T12:36:39;27.60;34.40
13585;DHT22;6863;48.402;9.994;2022-11-15T12:39:12;26.20;36.40
13585;DHT22;6863;48.402;9.994;2022-11-15T12:41:40;24.80;38.40
13585;DHT22;6863;48.402;9.994;2022-11-15T12:44:12;23.90;40.20
13585;DHT22;6863;48.402;9.994;2022-11-15T12:59:52;21.30;46.20
13585;DHT22;6863;48.402;9.994;2022-11-15T13:02:29;21.00;46.70
13585;DHT22;6863;48.402;9.994;2022-11-15T13:17:40;17.50;54.00
13585;DHT22;6863;48.402;9.994;2022-11-15T13:22:44;16.20;56.70
13585;DHT22;6863;48.402;9.994;2022-11-15T13:27:47;15.40;60.20
13585;DHT22;6863;48.402;9.994;2022-11-15T13:30:20;15.00;62.40
13585;DHT22;6863;48.402;9.994;2022-11-15T13:32:46;14.70;65.00
13585;DHT22;6863;48.402;9.994;2022-11-15T13:35:22;14.50;66.80
13585;DHT22;6863;48.402;9.994;2022-11-15T13:37:49;14.40;68.00
13585;DHT22;6863;48.402;9.994;2022-11-15T13:42:49;13.90;72.00
13585;DHT22;6863;48.402;9.994;2022-11-15T13:45:17;13.50;74.60
13585;DHT22;6863;48.402;9.994;2022-11-15T13:47:43;13.40;78.10
13585;DHT22;6863;48.402;9.994;2022-11-15T13:50:12;13.20;80.60
13585;DHT22;6863;48.402;9.994;2022-11-15T13:52:40;13.20;83.40
13585;DHT22;6863;48.402;9.994;2022-11-15T13:55:12;13.40;84.70
13585;DHT22;6863;48.402;9.994;2022-11-15T13:57:48;13.50;86.10
13585;DHT22;6863;48.402;9.994;2022-11-15T14:02:51;13.80;86.90
13585;DHT22;6863;48.402;9.994;2022-11-15T14:05:19;14.00;86.90
13585;DHT22;6863;48.402;9.994;2022-11-15T14:08:05;14.20;87.50
13585;DHT22;6863;48.402;9.994;2022-11-15T14:10:38;14.30;86.80
13585;DHT22;6863;48.402;9.994;2022-11-15T14:13:11;14.10;88.00
13585;DHT22;6863;48.402;9.994;2022-11-15T14:15:54;14.00;89.60
13585;DHT22;6863;48.402;9.994;2022-11-15T14:18:44;14.00;90.30
13585;DHT22;6863;48.402;9.994;2022-11-15T14:21:10;13.90;90.80
13585;DHT22;6863;48.402;9.994;2022-11-15T14:23:36;13.90;91.10
13585;DHT22;6863;48.402;9.994;2022-11-15T14:26:02;13.70;91.80
13585;DHT22;6863;48.402;9.994;2022-11-15T14:28:33;13.60;92.80
13585;DHT22;6863;48.402;9.994;2022-11-15T14:31:10;13.40;93.70
13585;DHT22;6863;48.402;9.994;2022-11-15T14:33:37;13.30;94.20
13585;DHT22;6863;48.402;9.994;2022-11-15T14:36:10;13.30;94.40
13585;DHT22;6863;48.402;9.994;2022-11-15T14:38:36;13.30;94.80
13585;DHT22;6863;48.402;9.994;2022-11-15T14:41:02;13.10;95.70
13585;DHT22;6863;48.402;9.994;2022-11-15T14:43:27;13.10;96.10
13585;DHT22;6863;48.402;9.994;2022-11-15T14:45:53;13.00;96.50
13585;DHT22;6863;48.402;9.994;2022-11-15T14:48:19;13.00;96.80
13585;DHT22;6863;48.402;9.994;2022-11-15T14:50:44;12.90;97.40
13585;DHT22;6863;48.402;9.994;2022-11-15T14:53:12;12.70;98.20
13585;DHT22;6863;48.402;9.994;2022-11-15T14:55:40;12.60;98.70
13585;DHT22;6863;48.402;9.994;2022-11-15T14:58:06;12.60;98.90
13585;DHT22;6863;48.402;9.994;2022-11-15T15:00:36;12.60;99.10
13585;DHT22;6863;48.402;9.994;2022-11-15T15:03:03;12.60;99.20
13585;DHT22;6863;48.402;9.994;2022-11-15T15:05:38;12.40;99.30
13585;DHT22;6863;48.402;9.994;2022-11-15T15:08:05;12.30;99.60
13585;DHT22;6863;48.402;9.994;2022-11-15T15:10:39;12.30;99.80
13585;DHT22;6863;48.402;9.994;2022-11-15T15:13:06;12.30;99.80
13585;DHT22;6863;48.402;9.994;2022-11-15T15:15:36;12.30;99.90
13585;DHT22;6863;48.402;9.994;2022-11-15T15:18:02;12.30;99.90
13585;DHT22;6863;48.402;9.994;2022-11-15T15:20:29;12.30;99.90
13585;DHT22;6863;48.402;9.994;2022-11-15T15:22:55;12.20;99.90
13585;DHT22;6863;48.402;9.994;2022-11-15T15:25:22;12.20;99.90
13585;DHT22;6863;48.402;9.994;2022-11-15T15:27:49;12.10;99.90
13585;DHT22;6863;48.402;9.994;2022-11-15T15:30:15;12.10;99.90
13585;DHT22;6863;48.402;9.994;2022-11-15T15:32:41;12.00;99.90
13585;DHT22;6863;48.402;9.994;2022-11-15T15:35:10;11.90;99.90
13585;DHT22;6863;48.402;9.994;2022-11-15T15:37:36;11.90;99.90
13585;DHT22;6863;48.402;9.994;2022-11-15T15:40:02;11.80;99.90
13585;DHT22;6863;48.402;9.994;2022-11-15T15:42:27;11.80;99.90
13585;DHT22;6863;48.402;9.994;2022-11-15T15:44:53;11.70;99.90
13585;DHT22;6863;48.402;9.994;2022-11-15T15:47:20;11.70;99.90
13585;DHT22;6863;48.402;9.994;2022-11-15T15:49:47;11.70;99.90
13585;DHT22;6863;48.402;9.994;2022-11-15T15:52:12;11.60;99.90
13585;DHT22;6863;48.402;9.994;2022-11-15T15:54:39;11.60;99.90
13585;DHT22;6863;48.402;9.994;2022-11-15T15:57:06;11.60;99.90
13585;DHT22;6863;48.402;9.994;2022-11-15T15:59:31;11.60;99.90
13585;DHT22;6863;48.402;9.994;2022-11-15T16:01:57;11.60;99.90
13585;DHT22;6863;48.402;9.994;2022-11-15T16:04:23;11.50;99.90
13585;DHT22;6863;48.402;9.994;2022-11-15T16:06:49;11.50;99.90
13585;DHT22;6863;48.402;9.994;2022-11-15T16:09:18;11.50;99.90
13585;DHT22;6863;48.402;9.994;2022-11-15T16:12:04;11.50;99.90
13585;DHT22;6863;48.402;9.994;2022-11-15T16:14:31;11.40;99.90
13585;DHT22;6863;48.402;9.994;2022-11-15T16:16:56;11.40;99.90
13585;DHT22;6863;48.402;9.994;2022-11-15T16:19:22;11.40;99.90
13585;DHT22;6863;48.402;9.994;2022-11-15T16:21:47;11.40;99.90
13585;DHT22;6863;48.402;9.994;2022-11-15T16:24:13;11.40;99.90
13585;DHT22;6863;48.402;9.994;2022-11-15T16:26:39;11.30;99.90
13585;DHT22;6863;48.402;9.994;2022-11-15T16:29:04;11.30;99.90
13585;DHT22;6863;48.402;9.994;2022-11-15T16:31:32;11.30;99.90
13585;DHT22;6863;48.402;9.994;2022-11-15T16:33:57;11.30;99.90
13585;DHT22;6863;48.402;9.994;2022-11-15T16:36:25;11.30;99.90
13585;DHT22;6863;48.402;9.994;2022-11-15T16:38:51;11.30;99.90
13585;DHT22;6863;48.402;9.994;2022-11-15T16:41:16;11.30;99.90
13585;DHT22;6863;48.402;9.994;2022-11-15T16:43:49;11.20;99.90
13585;DHT22;6863;48.402;9.994;2022-11-15T16:46:25;11.20;99.90
13585;DHT22;6863;48.402;9.994;2022-11-15T16:48:52;11.20;99.90
13585;DHT22;6863;48.402;9.994;2022-11-15T16:51:21;11.10;99.90
13585;DHT22;6863;48.402;9.994;2022-11-15T16:53:47;11.10;99.90
13585;DHT22;6863;48.402;9.994;2022-11-15T16:56:21;11.10;99.90
13585;DHT22;6863;48.402;9.994;2022-11-15T16:58:48;11.00;99.90
13585;DHT22;6863;48.402;9.994;2022-11-15T17:01:19;11.00;99.90
13585;DHT22;6863;48.402;9.994;2022-11-15T17:03:46;10.90;99.90
13585;DHT22;6863;48.402;9.994;2022-11-15T17:06:13;10.90;99.90
13585;DHT22;6863;48.402;9.994;2022-11-15T17:08:39;10.90;99.90
13585;DHT22;6863;48.402;9.994;2022-11-15T17:11:06;10.90;99.90
13585;DHT22;6863;48.402;9.994;2022-11-15T17:13:31;10.90;99.90
13585;DHT22;6863;48.402;9.994;2022-11-15T17:16:09;10.80;99.90
13585;DHT22;6863;48.402;9.994;2022-11-15T17:18:35;10.80;99.90
13585;DHT22;6863;48.402;9.994;2022-11-15T17:21:05;10.80;99.90
13585;DHT22;6863;48.402;9.994;2022-11-15T17:23:32;10.80;99.90
13585;DHT22;6863;48.402;9.994;2022-11-15T17:26:03;10.80;99.90
13585;DHT22;6863;48.402;9.994;2022-11-15T17:28:33;10.80;99.90
13585;DHT22;6863;48.402;9.994;2022-11-15T17:31:00;10.70;99.90
13585;DHT22;6863;48.402;9.994;2022-11-15T17:33:25;10.70;99.90
13585;DHT22;6863;48.402;9.994;2022-11-15T17:35:59;10.70;99.90
13585;DHT22;6863;48.402;9.994;2022-11-15T17:38:25;10.70;99.90
13585;DHT22;6863;48.402;9.994;2022-11-15T17:41:12;10.70;99.90
13585;DHT22;6863;48.402;9.994;2022-11-15T17:43:38;10.60;99.90
13585;DHT22;6863;48.402;9.994;2022-11-15T17:46:06;10.60;99.90
13585;DHT22;6863;48.402;9.994;2022-11-15T17:48:32;10.60;99.90
13585;DHT22;6863;48.402;9.994;2022-11-15T17:51:00;10.50;99.90
13585;DHT22;6863;48.402;9.994;2022-11-15T17:53:27;10.50;99.90
13585;DHT22;6863;48.402;9.994;2022-11-15T17:56:03;10.50;99.90
13585;DHT22;6863;48.402;9.994;2022-11-15T17:58:30;10.50;99.90
13585;DHT22;6863;48.402;9.994;2022-11-15T18:03:41;10.40;99.90
13585;DHT22;6863;48.402;9.994;2022-11-15T18:06:08;10.40;99.90